Time;durP1;ratioP1;P1;durP2;ratioP2;P2;SDS_P1;SDS_P2;PMS_P1;PMS_P2;Temp;Humidity;BMP_temperature;BMP_pressure;BME280_temperature;BME280_humidity;BME280_pressure;Samples;Min_cycle;Max_cycle;Signal;HPM_P1;HPM_P2
2021/11/05 03:03:05;;;;;;;33.78;14.23;;;4.30;99.90;;;5.42;100.00;101250.38;2567004;30;137646;-38
2021/11/05 03:05:33;;;;;;;31.80;14.27;;;7.20;99.90;;;5.51;100.00;101268.28;2569634;30;138692;-38
2021/11/05 03:08:00;;;;;;;36.13;16.25;;;7.10;99.90;;;5.54;100.00;101275.25;2570689;30;137727;-38
2021/11/05 03:10:28;;;;;;;35.10;15.98;;;7.20;99.90;;;5.55;100.00;101276.94;2568267;30;139520;-38
2021/11/05 03:12:56;;;;;;;32.58;15.50;;;7.20;99.90;;;5.54;100.00;101292.31;2568666;30;137712;-38
2021/11/05 03:15:24;;;;;;;31.10;14.63;;;7.20;99.90;;;5.57;100.00;101275.75;2570808;30;137319;-38
2021/11/05 03:17:53;;;;;;;30.20;14.00;;;7.20;99.90;;;5.52;100.00;101282.69;2568321;30;137597;-38
2021/11/05 03:20:22;;;;;;;29.98;14.90;;;7.20;99.90;;;5.50;100.00;101285.53;2569921;30;138300;-38
2021/11/05 03:22:49;;;;;;;32.25;14.23;;;7.20;99.90;;;5.52;100.00;101296.22;2565818;30;137364;-38
2021/11/05 03:25:18;;;;;;;33.17;13.75;;;7.20;99.90;;;5.50;100.00;101301.78;2568463;30;137653;-38
2021/11/05 03:27:46;;;;;;;33.97;15.07;;;7.10;99.90;;;5.48;100.00;101301.09;2568537;30;137837;-38
2021/11/05 03:30:19;;;;;;;30.17;13.80;;;7.10;99.90;;;5.47;100.00;101297.56;2567292;30;138523;-38
2021/11/05 03:32:47;;;;;;;25.92;12.45;;;7.10;99.90;;;5.44;100.00;101307.88;2567954;30;137493;-38
2021/11/05 03:35:15;;;;;;;31.13;15.25;;;7.10;99.90;;;5.53;100.00;101306.03;2568674;30;139013;-38
2021/11/05 03:37:44;;;;;;;28.20;12.52;;;7.10;99.90;;;5.45;100.00;101309.56;2569799;30;136904;-38
2021/11/05 03:40:15;;;;;;;29.02;13.45;;;7.10;99.90;;;5.42;100.00;101316.16;2569563;30;138328;-38
2021/11/05 03:42:48;;;;;;;28.38;13.43;;;7.10;99.90;;;5.40;100.00;101318.16;2571379;30;137985;-38
2021/11/05 03:45:17;;;;;;;26.08;12.75;;;7.10;99.90;;;5.38;100.00;101317.50;2568576;30;137431;-38
2021/11/05 03:47:45;;;;;;;28.15;12.93;;;7.10;99.90;;;5.42;100.00;101321.56;2567777;30;137663;-38
2021/11/05 03:50:14;;;;;;;29.20;13.68;;;7.10;99.90;;;5.44;100.00;101329.53;2569915;30;138207;-38
2021/11/05 03:52:42;;;;;;;26.60;12.68;;;7.10;99.90;;;5.43;100.00;101330.53;2569608;30;137047;-38
2021/11/05 03:55:11;;;;;;;29.05;13.50;;;7.10;99.90;;;5.36;100.00;101332.22;2568106;30;138385;-38
2021/11/05 03:57:38;;;;;;;28.40;14.18;;;7.00;99.90;;;5.40;100.00;101339.00;2571047;30;138071;-38
2021/11/05 04:00:11;;;;;;;24.90;11.88;;;7.00;99.90;;;5.35;100.00;101347.59;2569373;30;138349;-38
2021/11/05 04:02:39;;;;;;;25.30;12.73;;;7.00;99.90;;;5.36;100.00;101348.47;2568713;30;137506;-38
2021/11/05 04:05:10;;;;;;;24.50;12.00;;;7.00;99.90;;;5.36;100.00;101354.69;2569057;30;138407;-38
2021/11/05 04:07:38;;;;;;;;;;;7.00;99.90;;;5.35;100.00;101357.59;2569821;30;138077;-38
2021/11/05 04:10:06;;;;;;;25.25;11.77;;;7.00;99.90;;;5.33;100.00;101365.84;2568771;30;137491;-38
2021/11/05 04:12:34;;;;;;;24.65;11.57;;;7.00;99.90;;;5.35;100.00;101373.81;2570120;30;137994;-38
2021/11/05 04:15:02;;;;;;;;;;;7.00;99.90;;;5.33;100.00;101380.25;2570145;30;138128;-38
2021/11/05 04:17:29;;;;;;;27.60;12.52;;;7.00;99.90;;;5.35;100.00;101387.34;2569138;30;137151;-38
2021/11/05 04:19:57;;;;;;;23.13;12.10;;;7.00;99.90;;;5.33;100.00;101385.66;2570387;30;137149;-38
2021/11/05 04:22:24;;;;;;;26.60;11.60;;;7.00;99.90;;;5.28;100.00;101385.28;2569285;30;138854;-38
2021/11/05 04:24:52;;;;;;;23.20;11.70;;;7.00;99.90;;;5.34;100.00;101383.78;2567411;30;136657;-38
2021/11/05 04:27:19;;;;;;;24.42;11.07;;;7.00;99.90;;;5.29;100.00;101395.09;2569667;30;137854;-38
2021/11/05 04:29:47;;;;;;;18.08;10.20;;;7.00;99.90;;;5.26;100.00;101395.41;2570161;30;138470;-38
2021/11/05 04:32:15;;;;;;;21.30;11.05;;;6.90;99.90;;;5.29;100.00;101400.50;2568453;30;137786;-38
2021/11/05 04:34:42;;;;;;;22.52;11.73;;;7.00;99.90;;;5.27;100.00;101410.66;2568449;30;138542;-38
2021/11/05 04:37:10;;;;;;;20.25;10.40;;;7.00;99.90;;;5.25;100.00;101409.13;2569714;30;137780;-38
2021/11/05 04:39:38;;;;;;;22.35;11.30;;;7.00;99.90;;;5.26;100.00;101419.78;2570873;30;138435;-38
2021/11/05 04:42:06;;;;;;;21.35;11.10;;;6.90;99.90;;;5.25;100.00;101419.94;2570547;30;137784;-38
2021/11/05 04:44:33;;;;;;;22.98;11.63;;;6.90;99.90;;;5.25;100.00;101420.78;2569901;30;138358;-38
2021/11/05 04:47:01;;;;;;;26.20;12.65;;;6.90;99.90;;;5.29;100.00;101424.03;2569820;30;137606;-38
2021/11/05 04:49:29;;;;;;;23.67;11.60;;;6.90;99.90;;;5.25;100.00;101428.06;2571557;30;138465;-38
2021/11/05 04:51:56;;;;;;;25.10;12.55;;;6.90;99.90;;;5.20;100.00;101425.00;2569885;30;137785;-38
2021/11/05 04:54:24;;;;;;;24.08;11.90;;;6.90;99.90;;;5.22;100.00;101440.06;2568029;30;138873;-38
2021/11/05 04:56:51;;;;;;;22.48;11.32;;;6.90;99.90;;;5.15;100.00;101431.72;2570146;30;137693;-38
2021/11/05 04:59:19;;;;;;;24.98;11.90;;;6.90;99.90;;;5.24;100.00;101448.84;2570082;30;138979;-38
2021/11/05 05:01:47;;;;;;;25.17;12.90;;;6.90;99.90;;;5.25;100.00;101447.84;2571435;30;137134;-38
2021/11/05 05:04:15;;;;;;;26.85;13.38;;;6.90;99.90;;;5.24;100.00;101445.31;2569698;30;138278;-38
2021/11/05 05:06:43;;;;;;;27.25;13.13;;;6.90;99.90;;;5.29;100.00;101457.31;2571408;30;137610;-38
2021/11/05 05:09:11;;;;;;;26.38;13.55;;;6.90;99.90;;;5.31;100.00;101459.88;2569912;30;139367;-38
2021/11/05 05:11:43;;;;;;;24.13;13.13;;;7.00;99.90;;;5.27;100.00;101461.22;2570593;30;137665;-38
2021/11/05 05:14:10;;;;;;;25.23;13.20;;;6.90;99.90;;;5.27;100.00;101470.16;2568957;30;138568;-38
2021/11/05 05:16:38;;;;;;;27.13;13.30;;;6.90;99.90;;;5.26;100.00;101473.06;2570660;30;137586;-38
2021/11/05 05:19:05;;;;;;;24.25;11.88;;;6.90;99.90;;;5.26;100.00;101475.75;2569201;30;139227;-38
2021/11/05 05:21:34;;;;;;;23.02;11.70;;;6.90;99.90;;;5.24;100.00;101484.03;2566874;30;138076;-38
2021/11/05 05:24:02;;;;;;;22.98;12.13;;;6.90;99.90;;;5.21;100.00;101481.66;2567480;30;139560;-38
2021/11/05 05:26:30;;;;;;;25.20;12.38;;;6.90;99.90;;;5.20;100.00;101479.94;2569903;30;137520;-38
2021/11/05 05:28:57;;;;;;;22.70;12.18;;;6.90;99.90;;;5.21;100.00;101495.16;2568873;30;138342;-38
2021/11/05 05:31:25;;;;;;;22.13;11.88;;;6.90;99.90;;;5.25;100.00;101487.59;2569144;30;138413;-38
2021/11/05 05:33:52;;;;;;;21.73;11.23;;;6.90;99.90;;;5.18;100.00;101481.97;2570036;30;138478;-38
2021/11/05 05:36:20;;;;;;;25.52;12.88;;;6.90;99.90;;;5.16;100.00;101495.66;2569550;30;137120;-38
2021/11/05 05:38:47;;;;;;;26.60;12.23;;;6.90;99.90;;;5.22;100.00;101502.28;2569326;30;138444;-38
2021/11/05 05:41:16;;;;;;;21.48;11.70;;;6.90;99.90;;;5.23;100.00;101506.69;2568758;30;137247;-38
2021/11/05 05:43:44;;;;;;;22.73;11.52;;;6.90;99.90;;;5.26;100.00;101510.94;2566547;30;138845;-38
2021/11/05 05:46:12;;;;;;;23.98;12.75;;;6.90;99.90;;;5.24;100.00;101519.19;2569254;30;137647;-38
2021/11/05 05:48:40;;;;;;;27.80;14.35;;;6.90;99.90;;;5.27;100.00;101513.47;2570814;30;138150;-38
2021/11/05 05:51:07;;;;;;;24.15;13.07;;;6.90;99.90;;;5.26;100.00;101519.06;2566169;30;137694;-38
2021/11/05 05:53:35;;;;;;;22.00;12.70;;;6.90;99.90;;;5.28;100.00;101519.75;2568225;30;139421;-38
2021/11/05 05:56:03;;;;;;;24.30;12.70;;;6.90;99.90;;;5.22;100.00;101514.97;2566750;30;137844;-38
2021/11/05 05:58:31;;;;;;;21.50;10.57;;;6.90;99.90;;;5.27;100.00;101528.88;2569079;30;138285;-38
2021/11/05 06:00:59;;;;;;;20.50;11.10;;;6.90;99.90;;;5.22;100.00;101518.50;2569812;30;138112;-38
2021/11/05 06:03:27;;;;;;;18.80;10.93;;;6.90;99.90;;;5.26;100.00;101536.13;2568458;30;138605;-38
2021/11/05 06:05:54;;;;;;;24.83;12.60;;;6.90;99.90;;;5.24;100.00;101534.59;2569581;30;137129;-38
2021/11/05 06:08:22;;;;;;;25.58;13.00;;;6.90;99.90;;;5.27;100.00;101545.09;2569716;30;138130;-38
2021/11/05 06:10:50;;;;;;;;;;;6.90;99.90;;;5.29;100.00;101543.91;2569821;30;137721;-38
2021/11/05 06:13:18;;;;;;;28.05;14.73;;;6.90;99.90;;;5.35;100.00;101544.31;2569187;30;138327;-38
2021/11/05 06:15:45;;;;;;;30.45;15.68;;;7.00;99.90;;;5.29;100.00;101554.72;2568642;30;137251;-38
2021/11/05 06:18:13;;;;;;;29.52;14.80;;;7.00;99.90;;;5.29;100.00;101553.91;2569840;30;138390;-38
2021/11/05 06:20:40;;;;;;;25.38;13.93;;;7.00;99.90;;;5.27;100.00;101556.75;2569920;30;136757;-38
2021/11/05 06:23:08;;;;;;;26.98;15.23;;;6.90;99.90;;;5.29;100.00;101557.44;2570119;30;137771;-38
2021/11/05 06:25:36;;;;;;;28.00;15.10;;;7.00;99.90;;;5.29;100.00;101564.72;2570211;30;137737;-38
2021/11/05 06:28:04;;;;;;;29.55;15.70;;;7.00;99.90;;;5.33;100.00;101571.50;2570061;30;139020;-38
2021/11/05 06:30:32;;;;;;;33.70;15.77;;;7.00;99.90;;;5.30;100.00;101572.69;2570628;30;137519;-38
2021/11/05 06:33:01;;;;;;;30.52;15.23;;;7.00;99.90;;;5.28;100.00;101581.97;2570037;30;138567;-38
2021/11/05 06:35:29;;;;;;;32.58;15.68;;;7.00;99.90;;;5.30;100.00;101572.69;2570936;30;137752;-38
2021/11/05 06:37:57;;;;;;;;;;;7.00;99.90;;;5.38;100.00;101581.88;2568989;30;138523;-37
2021/11/05 06:40:25;;;;;;;29.80;15.10;;;7.00;99.90;;;5.39;100.00;101589.81;2569025;30;136727;-38
2021/11/05 06:42:52;;;;;;;30.15;15.05;;;7.00;99.90;;;5.37;100.00;101596.41;2569191;30;138985;-38
2021/11/05 06:45:20;;;;;;;29.83;16.02;;;7.00;99.90;;;5.35;100.00;101599.25;2568088;30;137485;-38
2021/11/05 06:47:48;;;;;;;29.45;14.45;;;7.00;99.90;;;5.40;100.00;101607.75;2569599;30;138518;-38
2021/11/05 06:50:15;;;;;;;27.52;14.80;;;7.00;99.90;;;5.39;100.00;101607.91;2570117;30;138185;-38
2021/11/05 06:52:43;;;;;;;28.60;14.25;;;7.00;99.90;;;5.37;100.00;101615.34;2570640;30;137494;-38
2021/11/05 06:55:11;;;;;;;29.77;14.55;;;7.00;99.90;;;5.38;100.00;101608.94;2570410;30;137591;-38
2021/11/05 06:57:38;;;;;;;;;;;7.00;99.90;;;5.39;100.00;101616.88;2566059;30;137435;-38
2021/11/05 07:00:11;;;;;;;27.45;13.88;;;7.00;99.90;;;5.35;100.00;101617.38;2568126;30;138282;-38
2021/11/05 07:02:42;;;;;;;28.83;14.65;;;7.00;99.90;;;5.34;100.00;101627.34;2570309;30;137950;-38
2021/11/05 07:05:14;;;;;;;30.38;15.40;;;7.00;99.90;;;5.38;100.00;101630.59;2567941;30;137302;-38
2021/11/05 07:07:43;;;;;;;31.38;16.55;;;7.00;99.90;;;5.40;100.00;101634.81;2570175;30;138890;-38
2021/11/05 07:10:12;;;;;;;30.58;15.07;;;7.00;99.90;;;5.39;100.00;101638.53;2568652;30;137531;-38
2021/11/05 07:12:40;;;;;;;29.40;15.63;;;7.00;99.90;;;5.38;100.00;101644.94;2570849;30;138770;-38
2021/11/05 07:15:11;;;;;;;29.55;14.98;;;7.00;99.90;;;5.41;100.00;101651.91;2567779;30;136887;-38
2021/11/05 07:17:39;;;;;;;27.88;13.95;;;7.10;99.90;;;5.43;100.00;101661.56;2571114;30;137844;-38
2021/11/05 07:20:08;;;;;;;;;;;7.10;99.90;;;5.45;100.00;101661.41;2570782;30;138157;-38
2021/11/05 07:22:37;;;;;;;26.95;11.60;;;7.10;99.90;;;5.44;100.00;101671.41;2568440;30;136881;-38
2021/11/05 07:25:08;;;;;;;23.75;12.93;;;7.10;99.90;;;5.48;100.00;101677.34;2569511;30;138331;-38
2021/11/05 07:27:36;;;;;;;24.08;12.60;;;7.10;99.90;;;5.52;100.00;101677.88;2568207;30;138051;-38
2021/11/05 07:30:10;;;;;;;28.45;14.98;;;7.10;99.90;;;5.55;100.00;101681.09;2569397;30;137068;-38
2021/11/05 07:32:45;;;;;;;30.75;15.00;;;7.20;99.90;;;5.56;100.00;101690.91;2569612;30;136787;-38
2021/11/05 07:35:16;;;;;;;27.67;15.25;;;7.20;99.90;;;5.56;100.00;101688.22;2569752;30;137653;-38
2021/11/05 07:37:44;;;;;;;29.13;14.90;;;7.20;99.90;;;5.61;100.00;101685.91;2569389;30;137036;-38
2021/11/05 07:40:12;;;;;;;;;;;7.20;99.90;;;5.64;100.00;101695.53;2569608;30;137588;-38
2021/11/05 07:42:43;;;;;;;30.38;15.40;;;7.20;99.90;;;5.70;100.00;101696.78;2569066;30;137242;-38
2021/11/05 07:45:14;;;;;;;31.10;15.95;;;7.30;99.90;;;5.80;100.00;101699.38;2569026;30;137887;-38
2021/11/05 07:47:45;;;;;;;32.65;16.88;;;7.40;99.90;;;5.89;100.00;101704.69;2568063;30;138327;-38
2021/11/05 07:50:16;;;;;;;33.83;17.20;;;7.40;99.90;;;5.97;100.00;101713.88;2568974;30;138558;-38
2021/11/05 07:52:45;;;;;;;32.92;17.08;;;7.50;99.90;;;6.02;100.00;101716.97;2570809;30;138311;-38
2021/11/05 07:55:13;;;;;;;30.95;17.08;;;7.60;99.90;;;6.01;100.00;101715.28;2567902;30;136976;-38
2021/11/05 07:57:40;;;;;;;33.25;17.10;;;7.60;99.90;;;6.04;100.00;101717.66;2569473;30;139206;-38
2021/11/05 08:00:10;;;;;;;;;;;7.60;99.90;;;6.01;100.00;101718.00;2568528;30;137110;-38
2021/11/05 08:02:39;;;;;;;32.45;16.10;;;7.60;99.90;;;6.07;100.00;101719.22;2569213;30;138190;-38
2021/11/05 08:05:09;;;;;;;30.60;17.13;;;7.60;99.90;;;6.10;100.00;101722.47;2565229;30;137010;-38
2021/11/05 08:07:39;;;;;;;31.48;17.15;;;7.70;99.90;;;6.18;100.00;101727.91;2569391;30;137725;-38
2021/11/05 08:10:14;;;;;;;28.73;15.48;;;7.70;99.90;;;6.22;100.00;101727.59;2567479;30;136878;-38
2021/11/05 08:12:41;;;;;;;32.05;16.77;;;7.80;99.90;;;6.22;100.00;101733.84;2569354;30;139091;-38
2021/11/05 08:15:10;;;;;;;27.63;15.98;;;7.80;99.90;;;6.31;100.00;101734.75;2565446;30;137443;-38
2021/11/05 08:17:38;;;;;;;35.08;17.58;;;7.80;99.90;;;6.39;100.00;101742.94;2571037;30;137474;-38
2021/11/05 08:20:07;;;;;;;29.33;16.10;;;7.90;99.90;;;6.49;100.00;101745.50;2568306;30;137449;-38
2021/11/05 08:22:35;;;;;;;27.00;16.08;;;8.00;99.90;;;6.55;100.00;101747.56;2568824;30;138570;-38
2021/11/05 08:25:03;;;;;;;28.50;16.88;;;8.00;99.90;;;6.66;100.00;101751.00;2567815;30;137587;-38
2021/11/05 08:27:31;;;;;;;28.40;15.63;;;8.10;99.90;;;6.63;100.00;101757.63;2567608;30;138361;-38
2021/11/05 08:29:58;;;;;;;29.17;16.58;;;8.10;99.90;;;6.67;100.00;101767.13;2569822;30;138354;-38
2021/11/05 08:32:26;;;;;;;26.00;14.55;;;8.20;99.90;;;6.61;100.00;101768.59;2565168;30;138765;-38
2021/11/05 08:34:53;;;;;;;25.55;16.08;;;8.20;99.90;;;6.66;100.00;101765.41;2569541;30;137603;-38
2021/11/05 08:37:21;;;;;;;23.25;14.40;;;8.20;99.90;;;6.67;100.00;101774.38;2568709;30;138701;-38
2021/11/05 08:39:49;;;;;;;22.38;14.13;;;8.20;99.90;;;6.70;100.00;101774.91;2568681;30;137633;-38
2021/11/05 08:42:16;;;;;;;24.30;15.32;;;8.20;99.90;;;6.79;100.00;101777.66;2568645;30;138522;-38
2021/11/05 08:44:44;;;;;;;24.58;15.27;;;8.30;99.90;;;6.80;100.00;101784.78;2569189;30;138085;-38
2021/11/05 08:47:12;;;;;;;22.20;14.48;;;8.30;99.90;;;6.80;100.00;101780.22;2569861;30;137375;-38
2021/11/05 08:49:40;;;;;;;27.10;14.70;;;8.30;99.90;;;6.88;100.00;101791.09;2570399;30;137730;-38
2021/11/05 08:52:08;;;;;;;25.10;14.63;;;8.30;99.90;;;6.91;100.00;101798.06;2568195;30;137231;-38
2021/11/05 08:54:36;;;;;;;22.30;14.18;;;8.40;99.90;;;6.95;100.00;101799.44;2566919;30;137896;-38
2021/11/05 08:57:04;;;;;;;21.08;13.82;;;8.40;99.90;;;6.99;100.00;101795.38;2569160;30;138512;-38
2021/11/05 08:59:31;;;;;;;25.33;15.32;;;8.50;99.90;;;7.01;100.00;101809.63;2570570;30;137342;-38
2021/11/05 09:01:59;;;;;;;22.30;13.98;;;8.50;99.90;;;6.98;100.00;101796.38;2571258;30;139045;-40
2021/11/05 09:04:27;;;;;;;24.50;14.75;;;8.50;99.90;;;7.06;100.00;101809.13;2566688;30;137625;-40
2021/11/05 09:06:55;;;;;;;21.90;13.68;;;8.50;99.90;;;7.08;100.00;101812.53;2567364;30;137107;-39
2021/11/05 09:09:23;;;;;;;27.73;13.93;;;8.60;99.90;;;7.10;100.00;101820.47;2565444;30;136659;-40
2021/11/05 09:11:52;;;;;;;;;;;8.60;99.90;;;7.12;100.00;101815.75;2567881;30;139003;-40
2021/11/05 09:14:21;;;;;;;26.67;13.57;;;8.60;99.90;;;7.31;100.00;101820.06;2568360;30;137297;-40
2021/11/05 09:17:06;;;;;;;25.20;15.10;;;8.70;99.90;;;7.46;100.00;101828.38;2566344;30;138900;-40
2021/11/05 09:19:34;;;;;;;23.38;14.68;;;8.80;99.90;;;7.54;100.00;101825.69;2567614;30;136962;-39
2021/11/05 09:22:02;;;;;;;24.10;14.20;;;8.90;99.90;;;7.62;100.00;101830.28;2567013;30;139371;-40
2021/11/05 09:24:29;;;;;;;;;;;9.00;99.90;;;7.59;100.00;101831.44;2568018;30;137044;-39
2021/11/05 09:26:57;;;;;;;18.90;12.13;;;9.00;99.90;;;7.65;100.00;101839.94;2569309;30;137463;-40
2021/11/05 09:29:25;;;;;;;21.40;13.70;;;9.10;99.90;;;7.77;100.00;101835.88;2568192;30;136920;-40
2021/11/05 09:31:53;;;;;;;20.38;13.60;;;9.20;99.90;;;7.86;99.59;101837.56;2568533;30;137894;-40
2021/11/05 09:34:21;;;;;;;20.35;12.52;;;9.20;99.90;;;7.89;99.10;101844.56;2568155;30;137577;-40
2021/11/05 09:36:48;;;;;;;21.25;12.40;;;9.20;99.90;;;7.88;97.78;101848.28;2568611;30;138166;-40
2021/11/05 09:39:16;;;;;;;20.55;12.80;;;9.30;99.90;;;7.82;97.44;101844.38;2566167;30;137634;-40
2021/11/05 09:41:44;;;;;;;19.42;12.85;;;9.30;99.90;;;7.80;97.89;101848.25;2568398;30;139330;-40
2021/11/05 09:44:12;;;;;;;17.17;12.60;;;9.30;99.90;;;7.80;98.31;101856.41;2569376;30;137517;-40
2021/11/05 09:46:40;;;;;;;22.02;12.73;;;9.20;99.90;;;7.87;100.00;101869.16;2566825;30;137332;-40
2021/11/05 09:49:08;;;;;;;16.58;11.57;;;9.30;99.90;;;7.88;99.31;101872.75;2567575;30;137670;-40
2021/11/05 09:51:37;;;;;;;20.20;13.20;;;9.30;99.90;;;8.00;100.00;101875.97;2568146;30;137350;-40
2021/11/05 09:54:06;;;;;;;22.08;12.60;;;9.40;99.90;;;8.06;100.00;101876.13;2568448;30;136858;-40
2021/11/05 09:56:34;;;;;;;19.63;12.93;;;9.50;99.90;;;8.15;99.19;101879.69;2568099;30;138013;-40
2021/11/05 09:59:02;;;;;;;19.02;12.02;;;9.50;99.90;;;8.20;97.32;101874.59;2569318;30;137057;-40
2021/11/05 10:01:30;;;;;;;18.85;11.95;;;9.60;99.90;;;8.30;97.23;101874.41;2567269;30;138466;-40
2021/11/05 10:03:57;;;;;;;18.67;11.93;;;9.70;99.90;;;8.35;97.88;101879.34;2567837;30;137392;-40
2021/11/05 10:06:25;;;;;;;18.45;11.65;;;9.70;99.90;;;8.42;98.70;101883.06;2568910;30;139102;-40
2021/11/05 10:08:55;;;;;;;16.80;11.88;;;9.80;99.90;;;8.44;98.13;101880.19;2567746;30;136786;-40
2021/11/05 10:11:25;;;;;;;16.42;10.88;;;9.80;99.90;;;8.47;98.60;101879.84;2568746;30;139223;-40
2021/11/05 10:13:56;;;;;;;17.08;11.88;;;9.90;99.90;;;8.51;98.31;101878.50;2568218;30;136927;-40
2021/11/05 10:16:27;;;;;;;18.60;11.70;;;9.90;99.90;;;8.61;99.18;101894.63;2567762;30;138223;-40
2021/11/05 10:19:07;;;;;;;16.88;11.82;;;10.00;99.90;;;8.59;96.61;101893.97;2568106;30;137710;-40
2021/11/05 10:21:44;;;;;;;17.40;10.82;;;10.00;99.90;;;8.80;97.35;101898.00;2565687;30;138132;-40
2021/11/05 10:24:19;;;;;;;18.98;11.32;;;10.10;99.90;;;9.04;97.29;101902.50;2566810;30;138333;-40
2021/11/05 10:26:50;;;;;;;19.13;11.07;;;10.30;99.90;;;9.17;95.10;101904.66;2567426;30;137706;-40
2021/11/05 10:29:31;;;;;;;15.75;10.40;;;10.40;99.90;;;9.23;93.53;101906.66;2568345;30;136936;-40
2021/11/05 10:32:09;;;;;;;17.40;10.05;;;10.50;99.90;;;9.24;92.60;101897.47;2567310;30;138997;-40
2021/11/05 10:34:52;;;;;;;16.02;9.85;;;10.60;99.90;;;9.34;93.00;101911.75;2567934;30;136834;-40
2021/11/05 10:37:32;;;;;;;13.50;9.70;;;10.60;99.90;;;9.51;93.48;101908.91;2568347;30;138300;-40
2021/11/05 10:40:01;;;;;;;13.90;9.35;;;10.80;99.90;;;9.55;91.32;101918.47;2567427;30;137077;-40
2021/11/05 10:42:46;;;;;;;15.60;8.75;;;10.80;99.90;;;9.63;91.86;101912.94;2568416;30;137045;-40
2021/11/05 10:45:22;;;;;;;13.98;8.57;;;10.90;99.90;;;9.69;90.73;101919.56;2568086;30;137383;-40
2021/11/05 10:47:55;;;;;;;18.48;9.98;;;10.90;99.90;;;9.75;91.72;101920.69;2565406;30;138515;-40
2021/11/05 10:50:34;;;;;;;13.98;9.68;;;11.00;99.90;;;9.82;91.26;101916.25;2568947;30;137563;-40
2021/11/05 10:53:12;;;;;;;11.80;8.50;;;11.10;99.90;;;9.68;88.89;101922.47;2567733;30;137409;-40
2021/11/05 10:56:24;;;;;;;15.30;9.60;;;11.10;99.90;;;9.71;90.34;101914.78;2567489;30;137555;-40
2021/11/05 10:59:01;;;;;;;14.98;9.95;;;11.10;99.90;;;9.88;92.01;101918.25;2566432;30;137220;-40
2021/11/05 11:01:39;;;;;;;13.18;8.07;;;11.20;99.90;;;10.04;89.61;101919.13;2567289;30;137663;-40
2021/11/05 11:04:10;;;;;;;12.73;8.63;;;11.30;99.90;;;10.17;90.27;101918.53;2566744;30;138520;-40
2021/11/05 11:06:48;;;;;;;16.00;7.95;;;11.40;99.90;;;10.26;88.34;101922.91;2569154;30;136750;-40
2021/11/05 11:09:23;;;;;;;14.05;8.13;;;11.50;99.90;;;10.18;88.41;101925.66;2567603;30;138376;-40
2021/11/05 11:11:58;;;;;;;13.27;7.90;;;11.50;99.90;;;10.11;87.39;101933.75;2567755;30;136778;-40
2021/11/05 11:14:35;;;;;;;12.40;6.97;;;11.50;99.90;;;10.08;88.22;101924.03;2567923;30;138989;-40
2021/11/05 11:17:10;;;;;;;11.77;6.90;;;11.50;99.90;;;10.19;88.08;101925.50;2568102;30;137822;-40
2021/11/05 11:19:44;;;;;;;10.95;7.45;;;11.50;99.90;;;10.35;88.96;101920.94;2568260;30;138333;-40
2021/11/05 11:22:12;;;;;;;12.45;7.15;;;11.60;99.90;;;10.48;88.54;101929.38;2565284;30;138055;-40
2021/11/05 11:24:41;;;;;;;13.07;7.10;;;11.70;99.90;;;10.49;87.67;101922.88;2567913;30;138956;-40
2021/11/05 11:27:11;;;;;;;11.65;6.97;;;11.80;99.90;;;10.57;87.80;101934.75;2566387;30;136996;-40
2021/11/05 11:29:53;;;;;;;11.95;7.13;;;11.80;99.90;;;10.51;86.40;101922.72;2567944;30;137472;-40
2021/11/05 11:32:22;;;;;;;16.33;6.60;;;11.80;99.90;;;10.55;86.71;101925.91;2568041;30;137633;-40
2021/11/05 11:34:50;;;;;;;12.18;5.82;;;11.80;99.90;;;10.55;86.02;101926.75;2567910;30;138267;-40
2021/11/05 11:37:19;;;;;;;13.07;6.30;;;11.80;99.90;;;10.53;86.35;101920.63;2567950;30;137258;-40
2021/11/05 11:39:46;;;;;;;11.98;6.68;;;11.90;99.90;;;10.69;88.04;101932.41;2566689;30;138981;-40
2021/11/05 11:42:15;;;;;;;11.15;6.35;;;12.00;99.90;;;10.70;86.06;101932.22;2567107;30;137813;-40
2021/11/05 11:44:44;;;;;;;11.05;5.80;;;12.00;99.90;;;10.83;88.16;101928.00;2567457;30;136859;-40
2021/11/05 11:47:14;;;;;;;7.88;4.65;;;12.10;99.90;;;10.86;88.39;101927.63;2567259;30;138413;-40
2021/11/05 11:49:46;;;;;;;12.23;6.55;;;12.10;99.90;;;10.82;87.89;101929.91;2568218;30;140502;-40
2021/11/05 11:52:19;;;;;;;10.30;5.43;;;12.10;99.90;;;10.74;87.77;101928.09;2567304;30;137479;-40
2021/11/05 11:54:54;;;;;;;8.82;5.03;;;12.10;99.90;;;10.63;85.78;101940.31;2567377;30;138179;-40
2021/11/05 11:57:25;;;;;;;8.55;5.00;;;12.10;99.90;;;10.60;87.63;101945.28;2568212;30;137470;-40
2021/11/05 12:00:19;;;;;;;10.73;4.68;;;12.00;99.90;;;10.59;86.76;101941.72;2567427;30;137774;-40
2021/11/05 12:03:05;;;;;;;7.20;3.78;;;12.00;99.90;;;10.58;86.71;101941.88;2568518;30;137876;-40
2021/11/05 12:05:32;;;;;;;7.15;3.97;;;12.00;99.90;;;10.75;88.31;101945.34;2568003;30;139190;-40
2021/11/05 12:08:29;;;;;;;8.35;4.00;;;12.10;99.90;;;10.86;87.67;101941.28;2564858;30;138267;-40
2021/11/05 12:11:14;;;;;;;8.38;4.50;;;12.10;99.90;;;10.97;87.16;101939.97;2568121;30;138395;-40
2021/11/05 12:14:11;;;;;;;9.60;4.60;;;12.20;99.90;;;11.10;87.44;101942.03;2564527;30;139035;-40
2021/11/05 12:16:41;;;;;;;8.73;4.13;;;12.30;99.90;;;11.15;86.23;101942.34;2569320;30;138484;-40
2021/11/05 12:19:11;;;;;;;7.05;3.88;;;12.40;99.90;;;11.23;87.80;101945.78;2568465;30;136760;-40
2021/11/05 12:22:10;;;;;;;9.77;4.10;;;12.50;99.90;;;11.30;84.44;101948.63;2565248;30;137622;-40
2021/11/05 12:24:39;;;;;;;14.05;4.40;;;12.60;99.90;;;11.32;85.61;101951.19;2567714;30;137721;-40
2021/11/05 12:27:27;;;;;;;7.32;3.65;;;12.60;99.90;;;11.29;84.61;101952.38;2565594;30;138985;-40
2021/11/05 12:30:09;;;;;;;9.63;3.33;;;12.60;99.90;;;11.33;85.28;101950.97;2567971;30;138259;-40
2021/11/05 12:32:39;;;;;;;5.88;2.38;;;12.60;99.90;;;11.30;82.86;101950.53;2567162;30;138423;-40
2021/11/05 12:35:17;;;;;;;7.85;2.78;;;12.60;99.90;;;11.37;84.45;101946.81;2567182;30;137379;-40
2021/11/05 12:38:08;;;;;;;4.40;2.53;;;12.70;99.90;;;11.43;84.27;101950.69;2567282;30;138401;-40
2021/11/05 12:40:41;;;;;;;5.70;2.17;;;12.70;99.90;;;11.51;84.87;101947.00;2567585;30;137773;-40
2021/11/05 12:43:14;;;;;;;5.88;2.00;;;12.80;99.90;;;11.58;85.05;101947.91;2567520;30;137533;-40
2021/11/05 12:45:54;;;;;;;5.47;2.15;;;12.80;99.90;;;11.53;83.12;101955.84;2567165;30;138161;-39
2021/11/05 12:48:40;;;;;;;5.35;1.80;;;12.80;99.90;;;11.54;82.50;101963.00;2566183;30;139395;-40
2021/11/05 12:51:19;;;;;;;4.82;2.00;;;12.80;99.90;;;11.60;83.99;101961.41;2566598;30;138676;-40
2021/11/05 12:54:07;;;;;;;4.05;2.30;;;12.90;99.90;;;11.56;82.97;101962.84;2567033;30;139019;-40
2021/11/05 12:56:39;;;;;;;7.30;2.70;;;12.90;99.90;;;11.56;82.76;101955.47;2567392;30;136950;-40
2021/11/05 12:59:16;;;;;;;5.43;1.95;;;12.90;99.90;;;11.67;84.31;101959.59;2567638;30;138526;-40
2021/11/05 13:02:03;;;;;;;6.82;1.90;;;12.90;99.90;;;11.94;83.62;101968.94;2568964;30;137617;-40
2021/11/05 13:04:39;;;;;;;6.18;2.47;;;13.10;99.90;;;12.03;80.98;101966.13;2567799;30;137076;-40
2021/11/05 13:07:08;;;;;;;5.07;2.10;;;13.20;99.90;;;12.29;82.99;101976.47;2568318;30;137480;-40
2021/11/05 13:09:42;;;;;;;5.20;2.58;;;13.40;99.90;;;12.50;82.70;101972.03;2568516;30;138341;-40
2021/11/05 13:12:16;;;;;;;10.05;2.60;;;13.60;99.90;;;12.54;81.58;101984.28;2569230;30;137634;-40
2021/11/05 13:15:03;;;;;;;5.68;2.45;;;13.70;99.90;;;12.40;79.12;101980.56;2568684;30;137610;-40
2021/11/05 13:17:38;;;;;;;5.43;2.30;;;13.60;99.90;;;12.29;80.09;101983.84;2567671;30;138555;-40
2021/11/05 13:20:39;;;;;;;9.13;2.72;;;13.50;99.90;;;12.19;80.92;101986.91;2568738;30;138224;-40